TimeEST,TemperatureF,Dew PointF,Humidity,Sea Level PressureIn,VisibilityMPH,Wind Direction,Wind SpeedMPH,Gust SpeedMPH,PrecipitationIn,Events,Conditions,WindDirDegrees,DateUTC
12:15 AM,24.8,21.2,86,30.18,-9999.0,Calm,Calm,-,N/A,,Unknown,0,2012-12-04 05:15:00
12:35 AM,26.6,21.2,80,30.19,-9999.0,Calm,Calm,-,N/A,,Clear,0,2012-12-04 05:35:00
12:55 AM,24.8,19.4,80,30.20,-9999.0,Calm,Calm,-,N/A,,Clear,0,2012-12-04 05:55:00
1:15 AM,24.8,21.2,86,30.21,-9999.0,Calm,Calm,-,N/A,,Unknown,0,2012-12-04 06:15:00
1:35 AM,24.8,21.2,86,30.21,-9999.0,Calm,Calm,-,N/A,,Unknown,0,2012-12-04 06:35:00
1:55 AM,24.8,19.4,80,30.21,-9999.0,Calm,Calm,-,N/A,,Clear,0,2012-12-04 06:55:00
2:15 AM,24.8,21.2,86,30.21,10.0,Calm,Calm,-,N/A,,Clear,0,2012-12-04 07:15:00
2:35 AM,23.0,17.6,80,30.21,10.0,Calm,Calm,-,N/A,,Clear,0,2012-12-04 07:35:00
2:55 AM,24.8,19.4,80,30.20,10.0,Calm,Calm,-,N/A,,Partly Cloudy,0,2012-12-04 07:55:00
3:15 AM,24.8,19.4,80,30.19,10.0,Calm,Calm,-,N/A,,Clear,0,2012-12-04 08:15:00
3:35 AM,24.8,19.4,80,30.20,10.0,Calm,Calm,-,N/A,,Clear,0,2012-12-04 08:35:00
3:55 AM,21.2,15.8,80,30.19,10.0,Calm,Calm,-,N/A,,Clear,0,2012-12-04 08:55:00
4:15 AM,21.2,17.6,86,30.19,-9999.0,Calm,Calm,-,N/A,,Unknown,0,2012-12-04 09:15:00
4:35 AM,24.8,19.4,80,30.19,9.0,Calm,Calm,-,N/A,,Clear,0,2012-12-04 09:35:00
4:55 AM,21.2,15.8,80,30.18,10.0,Calm,Calm,-,N/A,,Clear,0,2012-12-04 09:55:00
5:15 AM,21.2,17.6,86,30.17,10.0,Calm,Calm,-,N/A,,Clear,0,2012-12-04 10:15:00
5:35 AM,23.0,19.4,86,30.17,10.0,Calm,Calm,-,N/A,,Clear,0,2012-12-04 10:35:00
5:55 AM,24.8,17.6,74,30.17,10.0,Calm,Calm,-,N/A,,Clear,0,2012-12-04 10:55:00
6:15 AM,21.2,17.6,86,30.17,10.0,Calm,Calm,-,N/A,,Clear,0,2012-12-04 11:15:00
6:35 AM,21.2,15.8,80,30.19,10.0,Calm,Calm,-,N/A,,Clear,0,2012-12-04 11:35:00
6:55 AM,21.2,15.8,80,30.18,10.0,South,3.5,-,N/A,,Clear,190,2012-12-04 11:55:00
7:15 AM,23.0,19.4,86,30.19,10.0,Calm,Calm,-,N/A,,Partly Cloudy,0,2012-12-04 12:15:00
7:35 AM,21.2,17.6,86,30.19,10.0,Calm,Calm,-,N/A,,Mostly Cloudy,0,2012-12-04 12:35:00
7:55 AM,24.8,19.4,80,30.19,10.0,South,5.8,-,N/A,,Overcast,190,2012-12-04 12:55:00
8:15 AM,26.6,23.0,86,30.18,10.0,Calm,Calm,-,N/A,,Overcast,0,2012-12-04 13:15:00
8:35 AM,28.4,24.8,86,30.18,10.0,Calm,Calm,-,N/A,,Overcast,0,2012-12-04 13:35:00
8:55 AM,30.2,26.6,86,30.17,-9999.0,SE,3.5,-,N/A,,Overcast,130,2012-12-04 13:55:00
9:15 AM,32.0,26.6,80,30.16,10.0,SE,5.8,-,N/A,,Overcast,130,2012-12-04 14:15:00
9:35 AM,33.8,28.4,81,30.14,10.0,SE,11.5,-,N/A,,Overcast,140,2012-12-04 14:35:00
9:55 AM,33.8,28.4,81,30.13,10.0,SE,10.4,-,N/A,,Overcast,140,2012-12-04 14:55:00
10:15 AM,35.6,28.4,75,30.13,10.0,SSE,10.4,-,N/A,,Overcast,160,2012-12-04 15:15:00
10:35 AM,35.6,28.4,75,30.11,10.0,SSE,12.7,-,N/A,,Overcast,150,2012-12-04 15:35:00
11:15 AM,37.4,28.4,70,30.11,10.0,South,15.0,20.7,N/A,,Overcast,180,2012-12-04 16:15:00
11:35 AM,37.4,30.2,75,30.10,10.0,South,15.0,20.7,N/A,,Overcast,180,2012-12-04 16:35:00
11:55 AM,37.4,30.2,75,30.10,10.0,South,10.4,20.7,N/A,,Overcast,190,2012-12-04 16:55:00
12:15 PM,37.4,30.2,75,30.09,10.0,South,9.2,-,N/A,,Overcast,170,2012-12-04 17:15:00
12:35 PM,39.2,30.2,70,30.07,10.0,South,11.5,-,N/A,,Overcast,180,2012-12-04 17:35:00
12:55 PM,39.2,30.2,70,30.06,10.0,SSE,12.7,-,N/A,,Overcast,160,2012-12-04 17:55:00
1:35 PM,39.2,32.0,75,30.04,10.0,South,11.5,-,N/A,,Overcast,190,2012-12-04 18:35:00
1:55 PM,39.2,33.8,81,30.02,10.0,SSE,9.2,-,N/A,,Overcast,150,2012-12-04 18:55:00
2:15 PM,37.4,32.0,81,30.01,10.0,SSE,9.2,-,N/A,,Overcast,160,2012-12-04 19:15:00
2:35 PM,37.4,33.8,87,30.00,10.0,SSE,11.5,-,N/A,,Overcast,150,2012-12-04 19:35:00
2:55 PM,37.4,33.8,87,30.01,10.0,SSE,10.4,-,N/A,,Overcast,150,2012-12-04 19:55:00
3:15 PM,37.4,33.8,87,30.00,10.0,SSE,6.9,-,N/A,,Overcast,150,2012-12-04 20:15:00
3:35 PM,37.4,33.8,87,30.01,10.0,SE,5.8,-,N/A,,Overcast,130,2012-12-04 20:35:00
3:55 PM,39.2,33.8,81,30.00,10.0,SE,5.8,-,N/A,,Overcast,130,2012-12-04 20:55:00
4:15 PM,37.4,33.8,87,29.98,10.0,ESE,5.8,-,N/A,,Overcast,120,2012-12-04 21:15:00
4:35 PM,37.4,33.8,87,29.98,10.0,East,4.6,-,N/A,,Overcast,90,2012-12-04 21:35:00
4:55 PM,37.4,33.8,87,29.98,10.0,East,5.8,-,N/A,,Overcast,100,2012-12-04 21:55:00
5:15 PM,37.4,33.8,87,29.97,10.0,ESE,5.8,-,N/A,,Overcast,120,2012-12-04 22:15:00
5:55 PM,37.4,33.8,87,29.95,10.0,SE,12.7,-,N/A,,Overcast,140,2012-12-04 22:55:00
6:15 PM,37.4,33.8,87,29.94,10.0,SE,10.4,-,N/A,,Overcast,140,2012-12-04 23:15:00
6:35 PM,37.4,35.6,93,29.93,10.0,SSE,10.4,-,N/A,,Overcast,150,2012-12-04 23:35:00
6:55 PM,37.4,35.6,93,29.92,10.0,SSE,12.7,-,N/A,,Overcast,150,2012-12-04 23:55:00
7:15 PM,37.4,35.6,93,29.91,10.0,SSE,11.5,-,N/A,,Overcast,150,2012-12-05 00:15:00
7:36 PM,37.4,35.6,93,29.90,10.0,SE,10.4,-,N/A,,Overcast,140,2012-12-05 00:36:00
7:55 PM,37.4,35.6,93,29.89,10.0,SSE,10.4,-,N/A,,Overcast,150,2012-12-05 00:55:00
8:15 PM,39.2,35.6,87,29.89,10.0,SSE,9.2,-,N/A,,Overcast,160,2012-12-05 01:15:00
8:55 PM,44.6,39.2,81,29.87,10.0,South,12.7,18.4,N/A,,Overcast,180,2012-12-05 01:55:00
9:15 PM,44.6,39.2,81,29.86,10.0,South,15.0,19.6,N/A,,Overcast,180,2012-12-05 02:15:00
9:35 PM,44.6,39.2,81,29.84,10.0,South,11.5,16.1,N/A,,Overcast,170,2012-12-05 02:35:00
9:55 PM,44.6,41.0,87,29.83,10.0,South,15.0,21.9,N/A,,Overcast,170,2012-12-05 02:55:00
10:16 PM,44.6,41.0,87,29.82,10.0,South,13.8,-,N/A,,Overcast,180,2012-12-05 03:16:00
10:35 PM,46.4,41.0,81,29.81,10.0,South,15.0,21.9,N/A,,Overcast,170,2012-12-05 03:35:00
10:55 PM,46.4,41.0,81,29.80,10.0,South,13.8,18.4,N/A,,Overcast,180,2012-12-05 03:55:00
11:15 PM,46.4,42.8,87,29.80,10.0,South,17.3,23.0,N/A,,Overcast,180,2012-12-05 04:15:00
11:35 PM,46.4,42.8,87,29.78,10.0,South,16.1,25.3,N/A,,Overcast,180,2012-12-05 04:35:00
11:55 PM,48.2,42.8,82,29.77,10.0,South,16.1,21.9,N/A,,Overcast,180,2012-12-05 04:55:00